sensor_id;sensor_type;location;lat;lon;timestamp;P1;durP1;ratioP1;P2;durP2;ratioP2
8219;SDS011;4151;51.110;7.020;2022-11-23T00:01:09;5.03;;;1.50;;
8219;SDS011;4151;51.110;7.020;2022-11-23T00:03:45;8.93;;;1.37;;
8219;SDS011;4151;51.110;7.020;2022-11-23T00:06:12;5.37;;;1.40;;
8219;SDS011;4151;51.110;7.020;2022-11-23T00:08:38;4.77;;;1.70;;
8219;SDS011;4151;51.110;7.020;2022-11-23T00:11:04;2.57;;;1.10;;
8219;SDS011;4151;51.110;7.020;2022-11-23T00:13:30;6.57;;;1.60;;
8219;SDS011;4151;51.110;7.020;2022-11-23T00:15:55;7.23;;;1.60;;
8219;SDS011;4151;51.110;7.020;2022-11-23T00:18:21;8.20;;;1.70;;
8219;SDS011;4151;51.110;7.020;2022-11-23T00:20:47;12.23;;;2.10;;
8219;SDS011;4151;51.110;7.020;2022-11-23T00:23:12;4.10;;;1.23;;
8219;SDS011;4151;51.110;7.020;2022-11-23T00:25:38;12.43;;;1.70;;
8219;SDS011;4151;51.110;7.020;2022-11-23T00:28:03;5.07;;;1.70;;
8219;SDS011;4151;51.110;7.020;2022-11-23T00:30:29;4.83;;;1.43;;
8219;SDS011;4151;51.110;7.020;2022-11-23T00:32:54;5.40;;;2.50;;
8219;SDS011;4151;51.110;7.020;2022-11-23T00:35:20;4.43;;;1.30;;
8219;SDS011;4151;51.110;7.020;2022-11-23T00:37:47;11.20;;;1.50;;
8219;SDS011;4151;51.110;7.020;2022-11-23T00:40:12;4.97;;;1.03;;
8219;SDS011;4151;51.110;7.020;2022-11-23T00:42:38;5.13;;;1.40;;
8219;SDS011;4151;51.110;7.020;2022-11-23T00:45:04;4.13;;;1.10;;
8219;SDS011;4151;51.110;7.020;2022-11-23T00:47:30;11.10;;;1.70;;
8219;SDS011;4151;51.110;7.020;2022-11-23T00:49:55;3.17;;;1.00;;
8219;SDS011;4151;51.110;7.020;2022-11-23T00:52:21;14.80;;;1.47;;
8219;SDS011;4151;51.110;7.020;2022-11-23T00:54:46;5.73;;;1.43;;
8219;SDS011;4151;51.110;7.020;2022-11-23T00:57:12;6.10;;;1.30;;
8219;SDS011;4151;51.110;7.020;2022-11-23T00:59:37;3.23;;;1.30;;
8219;SDS011;4151;51.110;7.020;2022-11-23T01:02:03;4.40;;;1.30;;
8219;SDS011;4151;51.110;7.020;2022-11-23T01:04:28;6.33;;;1.30;;
8219;SDS011;4151;51.110;7.020;2022-11-23T01:06:54;2.20;;;0.90;;
8219;SDS011;4151;51.110;7.020;2022-11-23T01:09:21;6.50;;;1.23;;
8219;SDS011;4151;51.110;7.020;2022-11-23T01:11:50;2.83;;;0.80;;
8219;SDS011;4151;51.110;7.020;2022-11-23T01:14:16;2.50;;;1.10;;
8219;SDS011;4151;51.110;7.020;2022-11-23T01:16:42;1.93;;;1.10;;
8219;SDS011;4151;51.110;7.020;2022-11-23T01:19:10;5.40;;;1.40;;
8219;SDS011;4151;51.110;7.020;2022-11-23T01:21:36;4.13;;;1.00;;
8219;SDS011;4151;51.110;7.020;2022-11-23T01:24:06;3.40;;;1.20;;
8219;SDS011;4151;51.110;7.020;2022-11-23T01:26:34;5.37;;;1.40;;
8219;SDS011;4151;51.110;7.020;2022-11-23T01:28:59;6.87;;;1.10;;
8219;SDS011;4151;51.110;7.020;2022-11-23T01:31:25;2.80;;;1.20;;
8219;SDS011;4151;51.110;7.020;2022-11-23T01:33:51;6.53;;;1.23;;
8219;SDS011;4151;51.110;7.020;2022-11-23T01:36:23;2.43;;;1.10;;
8219;SDS011;4151;51.110;7.020;2022-11-23T01:38:50;2.23;;;1.10;;
8219;SDS011;4151;51.110;7.020;2022-11-23T01:41:23;2.53;;;1.20;;
8219;SDS011;4151;51.110;7.020;2022-11-23T01:43:51;3.40;;;1.20;;
8219;SDS011;4151;51.110;7.020;2022-11-23T01:46:16;2.10;;;1.07;;
8219;SDS011;4151;51.110;7.020;2022-11-23T01:48:46;4.53;;;1.40;;
8219;SDS011;4151;51.110;7.020;2022-11-23T01:51:22;9.07;;;1.33;;
8219;SDS011;4151;51.110;7.020;2022-11-23T01:53:51;2.80;;;1.40;;
8219;SDS011;4151;51.110;7.020;2022-11-23T01:56:22;2.73;;;1.30;;
8219;SDS011;4151;51.110;7.020;2022-11-23T01:58:52;3.20;;;1.00;;
8219;SDS011;4151;51.110;7.020;2022-11-23T02:01:21;6.03;;;1.20;;
8219;SDS011;4151;51.110;7.020;2022-11-23T02:03:47;3.43;;;1.17;;
8219;SDS011;4151;51.110;7.020;2022-11-23T02:06:16;7.37;;;0.90;;
8219;SDS011;4151;51.110;7.020;2022-11-23T02:08:43;2.20;;;1.10;;
8219;SDS011;4151;51.110;7.020;2022-11-23T02:11:10;2.80;;;1.00;;
8219;SDS011;4151;51.110;7.020;2022-11-23T02:13:37;4.63;;;1.10;;
8219;SDS011;4151;51.110;7.020;2022-11-23T02:16:03;5.73;;;1.53;;
8219;SDS011;4151;51.110;7.020;2022-11-23T02:18:29;4.40;;;1.00;;
8219;SDS011;4151;51.110;7.020;2022-11-23T02:21:00;3.73;;;1.23;;
8219;SDS011;4151;51.110;7.020;2022-11-23T02:23:29;3.43;;;1.20;;
8219;SDS011;4151;51.110;7.020;2022-11-23T02:28:34;7.03;;;1.40;;
8219;SDS011;4151;51.110;7.020;2022-11-23T02:31:03;6.33;;;1.33;;
8219;SDS011;4151;51.110;7.020;2022-11-23T02:33:29;5.00;;;1.00;;
8219;SDS011;4151;51.110;7.020;2022-11-23T02:35:56;5.63;;;1.10;;
8219;SDS011;4151;51.110;7.020;2022-11-23T02:38:25;3.37;;;1.10;;
8219;SDS011;4151;51.110;7.020;2022-11-23T02:40:54;5.10;;;1.20;;
8219;SDS011;4151;51.110;7.020;2022-11-23T02:43:20;6.30;;;2.00;;
8219;SDS011;4151;51.110;7.020;2022-11-23T02:45:50;2.90;;;1.00;;
8219;SDS011;4151;51.110;7.020;2022-11-23T02:48:20;7.73;;;1.90;;
8219;SDS011;4151;51.110;7.020;2022-11-23T02:50:46;8.07;;;2.13;;
8219;SDS011;4151;51.110;7.020;2022-11-23T02:53:12;5.50;;;1.50;;
8219;SDS011;4151;51.110;7.020;2022-11-23T02:55:37;13.30;;;2.23;;
8219;SDS011;4151;51.110;7.020;2022-11-23T02:58:04;10.13;;;1.70;;
8219;SDS011;4151;51.110;7.020;2022-11-23T03:00:30;6.47;;;1.83;;
8219;SDS011;4151;51.110;7.020;2022-11-23T03:02:57;7.23;;;1.30;;
8219;SDS011;4151;51.110;7.020;2022-11-23T03:05:25;4.60;;;1.50;;
8219;SDS011;4151;51.110;7.020;2022-11-23T03:07:51;7.60;;;1.60;;
8219;SDS011;4151;51.110;7.020;2022-11-23T03:10:17;4.20;;;1.47;;
8219;SDS011;4151;51.110;7.020;2022-11-23T03:12:44;7.00;;;1.73;;
8219;SDS011;4151;51.110;7.020;2022-11-23T03:15:09;9.80;;;1.77;;
8219;SDS011;4151;51.110;7.020;2022-11-23T03:17:35;7.87;;;2.07;;
8219;SDS011;4151;51.110;7.020;2022-11-23T03:20:01;3.80;;;1.70;;
8219;SDS011;4151;51.110;7.020;2022-11-23T03:22:27;2.33;;;1.30;;
8219;SDS011;4151;51.110;7.020;2022-11-23T03:24:52;2.97;;;1.23;;
8219;SDS011;4151;51.110;7.020;2022-11-23T03:27:18;12.80;;;1.50;;
8219;SDS011;4151;51.110;7.020;2022-11-23T03:29:43;5.13;;;1.40;;
8219;SDS011;4151;51.110;7.020;2022-11-23T03:32:09;9.00;;;1.70;;
8219;SDS011;4151;51.110;7.020;2022-11-23T03:34:35;4.93;;;1.47;;
8219;SDS011;4151;51.110;7.020;2022-11-23T03:37:00;6.30;;;1.20;;
8219;SDS011;4151;51.110;7.020;2022-11-23T03:39:26;10.30;;;1.70;;
8219;SDS011;4151;51.110;7.020;2022-11-23T03:41:51;4.83;;;1.07;;
8219;SDS011;4151;51.110;7.020;2022-11-23T03:44:17;1.93;;;1.30;;
8219;SDS011;4151;51.110;7.020;2022-11-23T03:46:43;4.00;;;1.13;;
8219;SDS011;4151;51.110;7.020;2022-11-23T03:49:08;6.97;;;1.43;;
8219;SDS011;4151;51.110;7.020;2022-11-23T03:51:34;4.00;;;1.33;;
8219;SDS011;4151;51.110;7.020;2022-11-23T03:54:00;11.90;;;2.23;;
8219;SDS011;4151;51.110;7.020;2022-11-23T03:56:25;7.67;;;2.07;;
8219;SDS011;4151;51.110;7.020;2022-11-23T03:58:51;8.60;;;2.10;;
8219;SDS011;4151;51.110;7.020;2022-11-23T04:01:16;7.07;;;1.60;;
8219;SDS011;4151;51.110;7.020;2022-11-23T04:03:42;8.43;;;1.57;;
8219;SDS011;4151;51.110;7.020;2022-11-23T04:06:07;10.90;;;1.83;;
8219;SDS011;4151;51.110;7.020;2022-11-23T04:08:33;7.77;;;1.63;;
8219;SDS011;4151;51.110;7.020;2022-11-23T04:10:58;5.40;;;1.00;;
8219;SDS011;4151;51.110;7.020;2022-11-23T04:13:24;8.63;;;2.13;;
8219;SDS011;4151;51.110;7.020;2022-11-23T04:15:50;7.70;;;2.03;;
8219;SDS011;4151;51.110;7.020;2022-11-23T04:18:16;8.00;;;1.40;;
8219;SDS011;4151;51.110;7.020;2022-11-23T04:20:41;4.63;;;1.60;;
8219;SDS011;4151;51.110;7.020;2022-11-23T04:23:07;12.33;;;1.93;;
8219;SDS011;4151;51.110;7.020;2022-11-23T04:25:32;5.07;;;1.10;;
8219;SDS011;4151;51.110;7.020;2022-11-23T04:27:58;8.97;;;1.70;;
8219;SDS011;4151;51.110;7.020;2022-11-23T04:30:24;4.00;;;1.20;;
8219;SDS011;4151;51.110;7.020;2022-11-23T04:32:49;11.20;;;1.57;;
8219;SDS011;4151;51.110;7.020;2022-11-23T04:35:15;9.67;;;1.67;;
8219;SDS011;4151;51.110;7.020;2022-11-23T04:37:41;4.63;;;1.60;;
8219;SDS011;4151;51.110;7.020;2022-11-23T04:40:06;10.27;;;1.93;;
8219;SDS011;4151;51.110;7.020;2022-11-23T04:42:33;6.20;;;1.40;;
8219;SDS011;4151;51.110;7.020;2022-11-23T04:44:58;6.87;;;1.30;;
8219;SDS011;4151;51.110;7.020;2022-11-23T04:47:24;9.50;;;1.57;;
8219;SDS011;4151;51.110;7.020;2022-11-23T04:49:49;5.37;;;1.37;;
8219;SDS011;4151;51.110;7.020;2022-11-23T04:52:15;6.13;;;1.40;;
8219;SDS011;4151;51.110;7.020;2022-11-23T04:54:41;7.10;;;1.50;;
8219;SDS011;4151;51.110;7.020;2022-11-23T04:57:07;14.63;;;1.60;;
8219;SDS011;4151;51.110;7.020;2022-11-23T04:59:32;10.70;;;1.70;;
8219;SDS011;4151;51.110;7.020;2022-11-23T05:01:58;14.20;;;2.20;;
8219;SDS011;4151;51.110;7.020;2022-11-23T05:04:23;13.83;;;1.50;;
8219;SDS011;4151;51.110;7.020;2022-11-23T05:06:49;3.17;;;1.60;;
8219;SDS011;4151;51.110;7.020;2022-11-23T05:09:15;16.73;;;2.70;;
8219;SDS011;4151;51.110;7.020;2022-11-23T05:11:40;6.23;;;1.80;;
8219;SDS011;4151;51.110;7.020;2022-11-23T05:14:06;11.70;;;2.20;;
8219;SDS011;4151;51.110;7.020;2022-11-23T05:16:32;6.37;;;2.47;;
8219;SDS011;4151;51.110;7.020;2022-11-23T05:18:57;8.30;;;1.30;;
8219;SDS011;4151;51.110;7.020;2022-11-23T05:21:23;2.10;;;1.40;;
8219;SDS011;4151;51.110;7.020;2022-11-23T05:23:49;9.80;;;1.40;;
8219;SDS011;4151;51.110;7.020;2022-11-23T05:26:14;7.27;;;1.17;;
8219;SDS011;4151;51.110;7.020;2022-11-23T05:28:40;6.77;;;1.60;;
8219;SDS011;4151;51.110;7.020;2022-11-23T05:31:05;7.30;;;1.30;;
8219;SDS011;4151;51.110;7.020;2022-11-23T05:33:31;2.93;;;1.33;;
8219;SDS011;4151;51.110;7.020;2022-11-23T05:35:57;5.90;;;1.70;;
8219;SDS011;4151;51.110;7.020;2022-11-23T05:38:22;7.97;;;2.57;;
8219;SDS011;4151;51.110;7.020;2022-11-23T05:40:48;9.53;;;1.67;;
8219;SDS011;4151;51.110;7.020;2022-11-23T05:43:13;15.13;;;2.03;;
8219;SDS011;4151;51.110;7.020;2022-11-23T05:45:39;9.90;;;1.60;;
8219;SDS011;4151;51.110;7.020;2022-11-23T05:48:04;7.90;;;1.57;;
8219;SDS011;4151;51.110;7.020;2022-11-23T05:50:30;2.40;;;1.13;;
8219;SDS011;4151;51.110;7.020;2022-11-23T05:52:56;9.70;;;1.73;;
8219;SDS011;4151;51.110;7.020;2022-11-23T05:55:22;6.43;;;1.43;;
8219;SDS011;4151;51.110;7.020;2022-11-23T05:57:48;7.10;;;1.73;;
8219;SDS011;4151;51.110;7.020;2022-11-23T06:00:14;4.63;;;1.60;;
8219;SDS011;4151;51.110;7.020;2022-11-23T06:02:40;7.57;;;1.50;;
8219;SDS011;4151;51.110;7.020;2022-11-23T06:05:05;9.20;;;1.80;;
8219;SDS011;4151;51.110;7.020;2022-11-23T06:07:32;12.27;;;1.87;;
8219;SDS011;4151;51.110;7.020;2022-11-23T06:09:58;4.57;;;1.57;;
8219;SDS011;4151;51.110;7.020;2022-11-23T06:12:24;8.70;;;1.70;;
8219;SDS011;4151;51.110;7.020;2022-11-23T06:14:50;7.33;;;1.23;;
8219;SDS011;4151;51.110;7.020;2022-11-23T06:17:16;10.50;;;1.53;;
8219;SDS011;4151;51.110;7.020;2022-11-23T06:19:42;4.57;;;1.33;;
8219;SDS011;4151;51.110;7.020;2022-11-23T06:22:07;2.50;;;1.33;;
8219;SDS011;4151;51.110;7.020;2022-11-23T06:24:33;5.97;;;1.43;;
8219;SDS011;4151;51.110;7.020;2022-11-23T06:26:59;5.50;;;1.40;;
8219;SDS011;4151;51.110;7.020;2022-11-23T06:29:24;9.33;;;1.73;;
8219;SDS011;4151;51.110;7.020;2022-11-23T06:31:50;8.30;;;1.50;;
8219;SDS011;4151;51.110;7.020;2022-11-23T06:34:15;4.10;;;1.10;;
8219;SDS011;4151;51.110;7.020;2022-11-23T06:36:41;5.07;;;1.47;;
8219;SDS011;4151;51.110;7.020;2022-11-23T06:39:07;7.40;;;1.43;;
8219;SDS011;4151;51.110;7.020;2022-11-23T06:41:33;10.43;;;2.00;;
8219;SDS011;4151;51.110;7.020;2022-11-23T06:43:59;9.90;;;2.50;;
8219;SDS011;4151;51.110;7.020;2022-11-23T06:46:24;4.10;;;1.33;;
8219;SDS011;4151;51.110;7.020;2022-11-23T06:48:50;4.13;;;1.50;;
8219;SDS011;4151;51.110;7.020;2022-11-23T06:51:15;3.00;;;1.23;;
8219;SDS011;4151;51.110;7.020;2022-11-23T06:53:41;9.67;;;1.63;;
8219;SDS011;4151;51.110;7.020;2022-11-23T06:56:07;2.57;;;1.23;;
8219;SDS011;4151;51.110;7.020;2022-11-23T06:58:33;9.83;;;2.23;;
8219;SDS011;4151;51.110;7.020;2022-11-23T07:01:00;4.90;;;1.53;;
8219;SDS011;4151;51.110;7.020;2022-11-23T07:03:26;9.30;;;1.33;;
8219;SDS011;4151;51.110;7.020;2022-11-23T07:05:52;9.20;;;1.30;;
8219;SDS011;4151;51.110;7.020;2022-11-23T07:08:18;5.07;;;1.30;;
8219;SDS011;4151;51.110;7.020;2022-11-23T07:10:44;4.53;;;1.20;;
8219;SDS011;4151;51.110;7.020;2022-11-23T07:13:09;7.90;;;1.97;;
8219;SDS011;4151;51.110;7.020;2022-11-23T07:15:36;7.67;;;1.90;;
8219;SDS011;4151;51.110;7.020;2022-11-23T07:18:02;6.07;;;1.40;;
8219;SDS011;4151;51.110;7.020;2022-11-23T07:20:28;12.80;;;2.30;;
8219;SDS011;4151;51.110;7.020;2022-11-23T07:23:01;7.70;;;1.50;;
8219;SDS011;4151;51.110;7.020;2022-11-23T07:25:31;15.83;;;1.90;;
8219;SDS011;4151;51.110;7.020;2022-11-23T07:27:58;23.63;;;2.40;;
8219;SDS011;4151;51.110;7.020;2022-11-23T07:30:25;14.70;;;2.40;;
8219;SDS011;4151;51.110;7.020;2022-11-23T07:32:52;6.53;;;1.53;;
8219;SDS011;4151;51.110;7.020;2022-11-23T07:35:20;6.17;;;2.00;;
8219;SDS011;4151;51.110;7.020;2022-11-23T07:37:46;5.33;;;1.30;;
8219;SDS011;4151;51.110;7.020;2022-11-23T07:40:11;8.27;;;1.67;;
8219;SDS011;4151;51.110;7.020;2022-11-23T07:42:37;11.40;;;2.20;;
8219;SDS011;4151;51.110;7.020;2022-11-23T07:45:03;8.63;;;1.50;;
8219;SDS011;4151;51.110;7.020;2022-11-23T07:47:30;5.67;;;1.73;;
8219;SDS011;4151;51.110;7.020;2022-11-23T07:49:56;7.83;;;1.70;;
8219;SDS011;4151;51.110;7.020;2022-11-23T07:52:22;8.60;;;1.93;;
8219;SDS011;4151;51.110;7.020;2022-11-23T07:54:47;3.83;;;1.90;;
8219;SDS011;4151;51.110;7.020;2022-11-23T07:57:13;9.03;;;2.00;;
8219;SDS011;4151;51.110;7.020;2022-11-23T07:59:39;12.93;;;1.60;;
8219;SDS011;4151;51.110;7.020;2022-11-23T08:02:05;8.07;;;1.70;;
8219;SDS011;4151;51.110;7.020;2022-11-23T08:04:30;10.97;;;2.10;;
8219;SDS011;4151;51.110;7.020;2022-11-23T08:06:56;4.60;;;1.80;;
8219;SDS011;4151;51.110;7.020;2022-11-23T08:09:21;16.47;;;2.00;;
8219;SDS011;4151;51.110;7.020;2022-11-23T08:11:47;9.47;;;1.93;;
8219;SDS011;4151;51.110;7.020;2022-11-23T08:14:13;20.50;;;2.03;;
8219;SDS011;4151;51.110;7.020;2022-11-23T08:16:38;14.20;;;2.40;;
8219;SDS011;4151;51.110;7.020;2022-11-23T08:19:04;12.10;;;2.17;;
8219;SDS011;4151;51.110;7.020;2022-11-23T08:21:30;13.50;;;2.50;;
8219;SDS011;4151;51.110;7.020;2022-11-23T08:23:55;10.07;;;1.97;;
8219;SDS011;4151;51.110;7.020;2022-11-23T08:26:21;6.50;;;1.50;;
8219;SDS011;4151;51.110;7.020;2022-11-23T08:28:46;10.43;;;1.93;;
8219;SDS011;4151;51.110;7.020;2022-11-23T08:31:12;7.13;;;1.77;;
8219;SDS011;4151;51.110;7.020;2022-11-23T08:33:39;5.67;;;1.80;;
8219;SDS011;4151;51.110;7.020;2022-11-23T12:50:27;12.77;;;2.37;;
8219;SDS011;4151;51.110;7.020;2022-11-23T12:53:26;3.30;;;1.30;;
8219;SDS011;4151;51.110;7.020;2022-11-23T12:58:57;4.47;;;1.27;;
8219;SDS011;4151;51.110;7.020;2022-11-23T13:01:25;5.80;;;1.33;;
8219;SDS011;4151;51.110;7.020;2022-11-23T13:06:34;6.40;;;1.30;;
8219;SDS011;4151;51.110;7.020;2022-11-23T13:09:35;6.60;;;1.73;;
8219;SDS011;4151;51.110;7.020;2022-11-23T13:15:02;5.10;;;1.80;;
8219;SDS011;4151;51.110;7.020;2022-11-23T13:20:20;4.30;;;1.43;;
8219;SDS011;4151;51.110;7.020;2022-11-23T13:22:57;8.80;;;1.10;;
8219;SDS011;4151;51.110;7.020;2022-11-23T13:25:24;4.20;;;1.63;;
8219;SDS011;4151;51.110;7.020;2022-11-23T13:32:55;5.93;;;2.13;;
8219;SDS011;4151;51.110;7.020;2022-11-23T13:38:16;10.83;;;2.83;;
8219;SDS011;4151;51.110;7.020;2022-11-23T13:40:41;4.63;;;1.60;;
8219;SDS011;4151;51.110;7.020;2022-11-23T13:48:52;4.00;;;1.60;;
8219;SDS011;4151;51.110;7.020;2022-11-23T13:51:23;8.70;;;2.00;;
8219;SDS011;4151;51.110;7.020;2022-11-23T13:53:56;4.53;;;2.17;;
8219;SDS011;4151;51.110;7.020;2022-11-23T13:59:19;7.50;;;2.47;;
8219;SDS011;4151;51.110;7.020;2022-11-23T14:04:31;4.03;;;1.90;;
8219;SDS011;4151;51.110;7.020;2022-11-23T14:07:00;8.73;;;2.23;;
8219;SDS011;4151;51.110;7.020;2022-11-23T14:15:10;7.00;;;1.60;;
8219;SDS011;4151;51.110;7.020;2022-11-23T14:23:00;5.60;;;1.70;;
8219;SDS011;4151;51.110;7.020;2022-11-23T14:25:48;3.03;;;1.80;;
8219;SDS011;4151;51.110;7.020;2022-11-23T14:36:59;4.67;;;1.80;;
8219;SDS011;4151;51.110;7.020;2022-11-23T14:39:46;4.77;;;2.30;;
8219;SDS011;4151;51.110;7.020;2022-11-23T14:42:13;8.27;;;1.57;;
8219;SDS011;4151;51.110;7.020;2022-11-23T14:44:42;7.80;;;1.57;;
8219;SDS011;4151;51.110;7.020;2022-11-23T14:47:09;7.47;;;2.00;;
8219;SDS011;4151;51.110;7.020;2022-11-23T14:49:36;10.47;;;1.77;;
8219;SDS011;4151;51.110;7.020;2022-11-23T14:52:12;13.60;;;1.83;;
8219;SDS011;4151;51.110;7.020;2022-11-23T14:54:48;4.53;;;1.67;;
8219;SDS011;4151;51.110;7.020;2022-11-23T14:57:15;4.60;;;2.03;;
8219;SDS011;4151;51.110;7.020;2022-11-23T14:59:45;8.40;;;2.07;;
8219;SDS011;4151;51.110;7.020;2022-11-23T15:05:25;7.03;;;1.63;;
8219;SDS011;4151;51.110;7.020;2022-11-23T15:08:42;3.90;;;1.50;;
8219;SDS011;4151;51.110;7.020;2022-11-23T15:10:47;7.03;;;1.77;;
8219;SDS011;4151;51.110;7.020;2022-11-23T15:13:24;9.93;;;1.80;;
8219;SDS011;4151;51.110;7.020;2022-11-23T15:15:55;4.30;;;2.13;;
8219;SDS011;4151;51.110;7.020;2022-11-23T15:18:29;4.10;;;1.60;;
8219;SDS011;4151;51.110;7.020;2022-11-23T15:21:02;9.83;;;2.03;;
8219;SDS011;4151;51.110;7.020;2022-11-23T15:23:32;3.77;;;1.40;;
8219;SDS011;4151;51.110;7.020;2022-11-23T15:26:01;10.23;;;2.13;;
8219;SDS011;4151;51.110;7.020;2022-11-23T15:28:30;4.70;;;1.90;;
8219;SDS011;4151;51.110;7.020;2022-11-23T15:30:59;4.80;;;1.67;;
8219;SDS011;4151;51.110;7.020;2022-11-23T15:33:25;5.17;;;2.20;;
8219;SDS011;4151;51.110;7.020;2022-11-23T15:35:51;4.57;;;2.27;;
8219;SDS011;4151;51.110;7.020;2022-11-23T15:38:18;5.73;;;1.87;;
8219;SDS011;4151;51.110;7.020;2022-11-23T15:40:45;7.40;;;2.10;;
8219;SDS011;4151;51.110;7.020;2022-11-23T15:43:13;9.33;;;1.60;;
8219;SDS011;4151;51.110;7.020;2022-11-23T15:48:11;6.87;;;3.10;;
8219;SDS011;4151;51.110;7.020;2022-11-23T15:53:54;8.20;;;1.90;;
8219;SDS011;4151;51.110;7.020;2022-11-23T15:56:28;12.70;;;2.97;;
8219;SDS011;4151;51.110;7.020;2022-11-23T15:58:56;8.33;;;2.30;;
8219;SDS011;4151;51.110;7.020;2022-11-23T16:01:23;6.73;;;2.43;;
8219;SDS011;4151;51.110;7.020;2022-11-23T16:03:50;3.10;;;1.73;;
8219;SDS011;4151;51.110;7.020;2022-11-23T16:06:38;10.17;;;1.77;;
8219;SDS011;4151;51.110;7.020;2022-11-23T16:12:04;10.40;;;2.63;;
8219;SDS011;4151;51.110;7.020;2022-11-23T16:14:47;9.20;;;3.03;;
8219;SDS011;4151;51.110;7.020;2022-11-23T16:17:15;20.83;;;6.97;;
8219;SDS011;4151;51.110;7.020;2022-11-23T16:19:44;5.60;;;2.60;;
8219;SDS011;4151;51.110;7.020;2022-11-23T16:22:25;11.37;;;2.57;;
8219;SDS011;4151;51.110;7.020;2022-11-23T16:25:02;16.67;;;2.47;;
8219;SDS011;4151;51.110;7.020;2022-11-23T16:27:32;11.87;;;2.40;;
8219;SDS011;4151;51.110;7.020;2022-11-23T16:29:59;18.27;;;2.30;;
8219;SDS011;4151;51.110;7.020;2022-11-23T16:32:27;6.67;;;2.43;;
8219;SDS011;4151;51.110;7.020;2022-11-23T16:34:57;9.97;;;2.87;;
8219;SDS011;4151;51.110;7.020;2022-11-23T16:37:33;9.23;;;2.00;;
8219;SDS011;4151;51.110;7.020;2022-11-23T16:39:58;8.87;;;3.10;;
8219;SDS011;4151;51.110;7.020;2022-11-23T16:42:24;5.13;;;2.37;;
8219;SDS011;4151;51.110;7.020;2022-11-23T16:44:51;11.10;;;3.37;;
8219;SDS011;4151;51.110;7.020;2022-11-23T16:47:23;6.10;;;2.50;;
8219;SDS011;4151;51.110;7.020;2022-11-23T16:49:50;9.93;;;2.60;;
8219;SDS011;4151;51.110;7.020;2022-11-23T16:52:16;10.10;;;2.60;;
8219;SDS011;4151;51.110;7.020;2022-11-23T16:54:43;7.03;;;2.33;;
8219;SDS011;4151;51.110;7.020;2022-11-23T16:57:14;6.03;;;2.87;;
8219;SDS011;4151;51.110;7.020;2022-11-23T16:59:51;7.20;;;2.60;;
8219;SDS011;4151;51.110;7.020;2022-11-23T17:02:17;13.80;;;2.90;;
8219;SDS011;4151;51.110;7.020;2022-11-23T17:04:42;9.03;;;3.10;;
8219;SDS011;4151;51.110;7.020;2022-11-23T17:07:08;10.93;;;3.60;;
8219;SDS011;4151;51.110;7.020;2022-11-23T17:09:34;5.33;;;2.90;;
8219;SDS011;4151;51.110;7.020;2022-11-23T17:11:59;12.23;;;3.50;;
8219;SDS011;4151;51.110;7.020;2022-11-23T17:14:26;8.63;;;2.47;;
8219;SDS011;4151;51.110;7.020;2022-11-23T17:17:00;14.43;;;2.97;;
8219;SDS011;4151;51.110;7.020;2022-11-23T17:19:28;7.73;;;3.03;;
8219;SDS011;4151;51.110;7.020;2022-11-23T17:21:54;15.70;;;4.03;;
8219;SDS011;4151;51.110;7.020;2022-11-23T17:24:19;6.70;;;3.10;;
8219;SDS011;4151;51.110;7.020;2022-11-23T17:26:46;11.83;;;3.90;;
8219;SDS011;4151;51.110;7.020;2022-11-23T17:29:17;7.20;;;3.17;;
8219;SDS011;4151;51.110;7.020;2022-11-23T17:31:44;14.10;;;4.10;;
8219;SDS011;4151;51.110;7.020;2022-11-23T17:34:11;9.37;;;3.10;;
8219;SDS011;4151;51.110;7.020;2022-11-23T17:36:37;11.07;;;2.70;;
8219;SDS011;4151;51.110;7.020;2022-11-23T17:39:03;25.40;;;4.17;;
8219;SDS011;4151;51.110;7.020;2022-11-23T17:41:29;10.47;;;3.33;;
8219;SDS011;4151;51.110;7.020;2022-11-23T17:43:55;10.63;;;3.17;;
8219;SDS011;4151;51.110;7.020;2022-11-23T17:46:23;4.43;;;2.77;;
8219;SDS011;4151;51.110;7.020;2022-11-23T17:48:50;9.03;;;3.70;;
8219;SDS011;4151;51.110;7.020;2022-11-23T17:51:19;8.17;;;4.10;;
8219;SDS011;4151;51.110;7.020;2022-11-23T17:53:45;12.57;;;4.10;;
8219;SDS011;4151;51.110;7.020;2022-11-23T17:56:21;7.90;;;3.77;;
8219;SDS011;4151;51.110;7.020;2022-11-23T17:58:49;12.73;;;4.03;;
8219;SDS011;4151;51.110;7.020;2022-11-23T18:01:17;11.00;;;4.07;;
8219;SDS011;4151;51.110;7.020;2022-11-23T18:03:44;14.83;;;6.33;;
8219;SDS011;4151;51.110;7.020;2022-11-23T18:06:20;13.63;;;7.53;;
8219;SDS011;4151;51.110;7.020;2022-11-23T18:08:48;44.17;;;12.27;;
8219;SDS011;4151;51.110;7.020;2022-11-23T18:11:14;47.30;;;17.30;;
8219;SDS011;4151;51.110;7.020;2022-11-23T18:13:41;17.83;;;6.53;;
8219;SDS011;4151;51.110;7.020;2022-11-23T18:16:07;19.90;;;5.70;;
8219;SDS011;4151;51.110;7.020;2022-11-23T18:18:34;18.10;;;4.07;;
8219;SDS011;4151;51.110;7.020;2022-11-23T18:21:00;12.87;;;5.80;;
8219;SDS011;4151;51.110;7.020;2022-11-23T18:23:27;31.67;;;5.07;;
8219;SDS011;4151;51.110;7.020;2022-11-23T18:25:56;12.80;;;3.43;;
8219;SDS011;4151;51.110;7.020;2022-11-23T18:28:29;8.13;;;3.23;;
8219;SDS011;4151;51.110;7.020;2022-11-23T18:30:55;10.33;;;4.07;;
8219;SDS011;4151;51.110;7.020;2022-11-23T18:33:21;7.60;;;3.27;;
8219;SDS011;4151;51.110;7.020;2022-11-23T18:35:48;12.67;;;3.80;;
8219;SDS011;4151;51.110;7.020;2022-11-23T18:38:14;12.67;;;3.30;;
8219;SDS011;4151;51.110;7.020;2022-11-23T18:40:39;16.33;;;4.50;;
8219;SDS011;4151;51.110;7.020;2022-11-23T18:43:05;16.77;;;5.00;;
8219;SDS011;4151;51.110;7.020;2022-11-23T18:45:30;9.30;;;3.83;;
8219;SDS011;4151;51.110;7.020;2022-11-23T18:47:56;4.50;;;3.67;;
8219;SDS011;4151;51.110;7.020;2022-11-23T18:50:22;10.00;;;4.13;;
8219;SDS011;4151;51.110;7.020;2022-11-23T18:52:47;16.03;;;3.20;;
8219;SDS011;4151;51.110;7.020;2022-11-23T18:55:13;8.17;;;3.67;;
8219;SDS011;4151;51.110;7.020;2022-11-23T18:57:38;10.13;;;4.50;;
8219;SDS011;4151;51.110;7.020;2022-11-23T19:00:04;9.97;;;3.60;;
8219;SDS011;4151;51.110;7.020;2022-11-23T19:02:31;9.07;;;3.90;;
8219;SDS011;4151;51.110;7.020;2022-11-23T19:04:57;12.50;;;4.93;;
8219;SDS011;4151;51.110;7.020;2022-11-23T19:07:22;12.90;;;4.57;;
8219;SDS011;4151;51.110;7.020;2022-11-23T19:09:48;6.47;;;3.13;;
8219;SDS011;4151;51.110;7.020;2022-11-23T19:12:14;10.47;;;5.00;;
8219;SDS011;4151;51.110;7.020;2022-11-23T19:14:40;12.57;;;4.63;;
8219;SDS011;4151;51.110;7.020;2022-11-23T19:17:06;11.20;;;3.80;;
8219;SDS011;4151;51.110;7.020;2022-11-23T19:19:31;10.50;;;4.13;;
8219;SDS011;4151;51.110;7.020;2022-11-23T19:21:57;7.90;;;3.80;;
8219;SDS011;4151;51.110;7.020;2022-11-23T19:24:23;8.67;;;3.17;;
8219;SDS011;4151;51.110;7.020;2022-11-23T19:26:48;9.23;;;2.90;;
8219;SDS011;4151;51.110;7.020;2022-11-23T19:29:14;9.53;;;3.17;;
8219;SDS011;4151;51.110;7.020;2022-11-23T19:31:39;8.73;;;3.63;;
8219;SDS011;4151;51.110;7.020;2022-11-23T19:34:05;10.47;;;3.97;;
8219;SDS011;4151;51.110;7.020;2022-11-23T19:48:40;6.37;;;3.90;;
8219;SDS011;4151;51.110;7.020;2022-11-23T19:51:06;9.83;;;5.00;;
8219;SDS011;4151;51.110;7.020;2022-11-23T19:53:36;10.87;;;4.63;;
8219;SDS011;4151;51.110;7.020;2022-11-23T19:56:04;10.50;;;4.27;;
8219;SDS011;4151;51.110;7.020;2022-11-23T19:58:37;10.60;;;4.70;;
8219;SDS011;4151;51.110;7.020;2022-11-23T20:01:10;17.80;;;4.50;;
8219;SDS011;4151;51.110;7.020;2022-11-23T20:03:36;9.07;;;3.77;;
8219;SDS011;4151;51.110;7.020;2022-11-23T20:06:04;12.37;;;3.83;;
8219;SDS011;4151;51.110;7.020;2022-11-23T20:08:33;17.23;;;4.57;;
8219;SDS011;4151;51.110;7.020;2022-11-23T20:11:05;10.47;;;4.40;;
8219;SDS011;4151;51.110;7.020;2022-11-23T20:13:33;11.50;;;3.30;;
8219;SDS011;4151;51.110;7.020;2022-11-23T20:16:02;22.87;;;3.83;;
8219;SDS011;4151;51.110;7.020;2022-11-23T20:18:36;8.50;;;3.60;;
8219;SDS011;4151;51.110;7.020;2022-11-23T20:21:02;9.43;;;4.13;;
8219;SDS011;4151;51.110;7.020;2022-11-23T20:23:28;9.70;;;3.50;;
8219;SDS011;4151;51.110;7.020;2022-11-23T20:25:55;12.57;;;4.20;;
8219;SDS011;4151;51.110;7.020;2022-11-23T20:28:21;14.93;;;4.13;;
8219;SDS011;4151;51.110;7.020;2022-11-23T20:30:47;9.07;;;4.30;;
8219;SDS011;4151;51.110;7.020;2022-11-23T20:33:13;12.80;;;4.37;;
8219;SDS011;4151;51.110;7.020;2022-11-23T20:35:38;12.10;;;4.37;;
8219;SDS011;4151;51.110;7.020;2022-11-23T20:38:04;13.10;;;4.20;;
8219;SDS011;4151;51.110;7.020;2022-11-23T20:40:30;7.93;;;3.43;;
8219;SDS011;4151;51.110;7.020;2022-11-23T20:42:56;9.43;;;3.53;;
8219;SDS011;4151;51.110;7.020;2022-11-23T20:45:24;10.50;;;3.73;;